Time,TemperatureF,DewpointF,PressureIn,WindDirection,WindDirectionDegrees,WindSpeedMPH,WindSpeedGustMPH,Humidity,HourlyPrecipIn,Conditions,Clouds,dailyrainin,SoftwareType,DateUTC
2013-06-28 00:03:00,64.4,63.0,29.71,NE,41,0.0,1.0,96,0.00,,,0.01,weatherlink.com 1.10,2013-06-28 04:03:00,
2013-06-28 00:18:00,64.5,63.0,29.71,NE,42,0.0,1.0,95,0.00,,,0.01,weatherlink.com 1.10,2013-06-28 04:18:00,
2013-06-28 00:33:00,65.2,63.0,29.71,East,101,1.0,3.0,92,0.00,,,0.01,weatherlink.com 1.10,2013-06-28 04:33:00,
2013-06-28 00:48:00,65.3,63.0,29.70,WSW,253,0.0,1.0,91,0.00,,,0.01,weatherlink.com 1.10,2013-06-28 04:48:00,
2013-06-28 01:03:00,65.9,63.0,29.70,SSE,160,1.0,6.0,89,0.00,,,0.01,weatherlink.com 1.10,2013-06-28 05:03:00,
2013-06-28 01:18:00,65.6,62.0,29.70,WSW,240,0.0,4.0,88,0.00,,,0.01,weatherlink.com 1.10,2013-06-28 05:18:00,
2013-06-28 01:33:00,65.9,62.0,29.68,West,264,0.0,5.0,87,0.00,,,0.01,weatherlink.com 1.10,2013-06-28 05:33:00,
2013-06-28 01:48:00,65.8,62.0,29.67,SSE,150,0.0,6.0,86,0.00,,,0.01,weatherlink.com 1.10,2013-06-28 05:48:00,
2013-06-28 02:03:00,65.2,61.0,29.67,SW,230,1.0,3.0,87,0.00,,,0.01,weatherlink.com 1.10,2013-06-28 06:03:00,
2013-06-28 02:18:00,65.2,61.0,29.67,WSW,253,3.0,10.0,86,0.00,,,0.00,weatherlink.com 1.10,2013-06-28 06:18:00,
2013-06-28 02:33:00,65.1,61.0,29.66,WSW,244,2.0,8.0,86,0.00,,,0.00,weatherlink.com 1.10,2013-06-28 06:33:00,
2013-06-28 02:48:00,64.2,61.0,29.65,SE,146,0.0,1.0,90,0.00,,,0.00,weatherlink.com 1.10,2013-06-28 06:48:00,
2013-06-28 03:03:00,63.3,61.0,29.65,WSW,250,0.0,5.0,93,0.01,,,0.01,weatherlink.com 1.10,2013-06-28 07:03:00,
2013-06-28 03:19:00,63.0,61.0,29.64,SSW,210,4.0,5.0,94,0.02,,,0.02,weatherlink.com 1.10,2013-06-28 07:19:00,
2013-06-28 03:34:00,62.9,61.0,29.63,West,269,0.0,3.0,94,0.03,,,0.03,weatherlink.com 1.10,2013-06-28 07:34:00,
2013-06-28 03:49:00,62.8,61.0,29.62,SSW,210,1.0,8.0,93,0.03,,,0.03,weatherlink.com 1.10,2013-06-28 07:49:00,
2013-06-28 04:04:00,62.3,60.0,29.60,ESE,105,2.0,7.0,92,0.02,,,0.03,weatherlink.com 1.10,2013-06-28 08:04:00,
2013-06-28 04:19:00,61.6,60.0,29.60,NNW,330,1.0,2.0,93,0.02,,,0.04,weatherlink.com 1.10,2013-06-28 08:19:00,
2013-06-28 04:34:00,61.0,60.0,29.58,SE,134,1.0,3.0,95,0.01,,,0.04,weatherlink.com 1.10,2013-06-28 08:34:00,
2013-06-28 04:49:00,61.0,59.0,29.57,WSW,256,2.0,9.0,93,0.01,,,0.04,weatherlink.com 1.10,2013-06-28 08:49:00,
2013-06-28 05:04:00,62.5,60.0,29.57,SW,232,1.0,11.0,92,0.01,,,0.04,weatherlink.com 1.10,2013-06-28 09:04:00,
2013-06-28 05:19:00,63.2,60.0,29.58,SSW,209,7.0,14.0,89,0.00,,,0.04,weatherlink.com 1.10,2013-06-28 09:19:00,
2013-06-28 05:34:00,62.6,60.0,29.57,WSW,258,5.0,12.0,90,0.01,,,0.05,weatherlink.com 1.10,2013-06-28 09:34:00,
2013-06-28 05:49:00,61.0,58.0,29.56,West,279,2.0,13.0,90,0.03,,,0.07,weatherlink.com 1.10,2013-06-28 09:49:00,
2013-06-28 06:04:00,60.4,58.0,29.56,East,96,6.0,10.0,91,0.06,,,0.10,weatherlink.com 1.10,2013-06-28 10:04:00,
2013-06-28 06:19:00,59.9,58.0,29.56,SW,233,3.0,9.0,93,0.09,,,0.13,weatherlink.com 1.10,2013-06-28 10:19:00,
2013-06-28 06:34:00,59.9,58.0,29.55,West,269,0.0,7.0,93,0.08,,,0.14,weatherlink.com 1.10,2013-06-28 10:34:00,
2013-06-28 06:49:00,60.3,58.0,29.56,West,261,5.0,8.0,91,0.06,,,0.14,weatherlink.com 1.10,2013-06-28 10:49:00,
2013-06-28 07:04:00,60.8,58.0,29.54,SSW,194,1.0,7.0,91,0.04,,,0.14,weatherlink.com 1.10,2013-06-28 11:04:00,
2013-06-28 07:19:00,59.9,58.0,29.54,NNE,24,0.0,8.0,94,0.01,,,0.14,weatherlink.com 1.10,2013-06-28 11:19:00,
2013-06-28 07:34:00,59.9,58.0,29.54,WSW,241,2.0,3.0,92,0.00,,,0.14,weatherlink.com 1.10,2013-06-28 11:34:00,
2013-06-28 07:49:00,60.0,58.0,29.53,South,183,3.0,9.0,94,0.01,,,0.15,weatherlink.com 1.10,2013-06-28 11:49:00,
2013-06-28 08:04:00,60.2,58.0,29.52,WNW,289,2.0,18.0,91,0.01,,,0.15,weatherlink.com 1.10,2013-06-28 12:04:00,
2013-06-28 08:19:00,60.3,58.0,29.52,SSW,198,3.0,11.0,91,0.01,,,0.15,weatherlink.com 1.10,2013-06-28 12:19:00,
2013-06-28 08:34:00,61.0,58.0,29.51,WSW,249,2.0,10.0,91,0.01,,,0.15,weatherlink.com 1.10,2013-06-28 12:34:00,
2013-06-28 08:49:00,61.2,58.0,29.51,South,183,1.0,11.0,89,0.00,,,0.15,weatherlink.com 1.10,2013-06-28 12:49:00,
2013-06-28 09:04:00,61.4,58.0,29.50,WSW,249,10.0,10.0,88,0.00,,,0.15,weatherlink.com 1.10,2013-06-28 13:04:00,
2013-06-28 09:19:00,61.5,58.0,29.49,South,173,3.0,10.0,87,0.00,,,0.15,weatherlink.com 1.10,2013-06-28 13:19:00,
2013-06-28 09:34:00,61.0,58.0,29.49,WSW,250,1.0,9.0,89,0.00,,,0.15,weatherlink.com 1.10,2013-06-28 13:34:00,
2013-06-28 09:49:00,60.7,58.0,29.50,SSW,195,4.0,6.0,91,0.01,,,0.16,weatherlink.com 1.10,2013-06-28 13:49:00,
2013-06-28 10:04:00,60.9,59.0,29.49,SSW,195,3.0,9.0,92,0.02,,,0.17,weatherlink.com 1.10,2013-06-28 14:04:00,
2013-06-28 10:19:00,60.7,58.0,29.48,WSW,248,3.0,9.0,92,0.02,,,0.17,weatherlink.com 1.10,2013-06-28 14:19:00,
2013-06-28 10:34:00,61.2,59.0,29.48,West,263,2.0,7.0,91,0.03,,,0.18,weatherlink.com 1.10,2013-06-28 14:34:00,
2013-06-28 10:49:00,61.7,59.0,29.48,SSW,194,4.0,10.0,90,0.02,,,0.18,weatherlink.com 1.10,2013-06-28 14:49:00,
2013-06-28 11:04:00,62.1,60.0,29.47,SSE,148,2.0,7.0,91,0.01,,,0.18,weatherlink.com 1.10,2013-06-28 15:04:00,
2013-06-28 11:19:00,62.8,61.0,29.47,WSW,248,1.0,8.0,92,0.01,,,0.18,weatherlink.com 1.10,2013-06-28 15:19:00,
2013-06-28 11:34:00,63.3,61.0,29.47,ENE,76,2.0,6.0,91,0.00,,,0.18,weatherlink.com 1.10,2013-06-28 15:34:00,
2013-06-28 11:49:00,63.6,63.0,29.46,SW,232,2.0,4.0,97,0.00,,,0.18,weatherlink.com 1.10,2013-06-28 15:49:00,
2013-06-28 12:05:00,64.9,63.0,29.47,West,276,2.0,7.0,93,0.00,,,0.18,weatherlink.com 1.10,2013-06-28 16:05:00,
2013-06-28 12:20:00,70.1,66.0,29.46,ESE,113,5.0,15.0,86,0.00,,,0.18,weatherlink.com 1.10,2013-06-28 16:20:00,
2013-06-28 12:35:00,69.4,65.0,29.46,South,178,5.0,15.0,87,0.00,,,0.18,weatherlink.com 1.10,2013-06-28 16:35:00,
2013-06-28 12:50:00,72.6,67.0,29.45,West,263,2.0,9.0,81,0.00,,,0.18,weatherlink.com 1.10,2013-06-28 16:50:00,
2013-06-28 13:05:00,73.7,66.0,29.46,SSW,200,4.0,10.0,78,0.00,,,0.18,weatherlink.com 1.10,2013-06-28 17:05:00,
2013-06-28 13:20:00,73.1,66.0,29.45,West,280,4.0,9.0,78,0.00,,,0.18,weatherlink.com 1.10,2013-06-28 17:20:00,
2013-06-28 13:35:00,72.6,65.0,29.45,SW,234,0.0,11.0,78,0.00,,,0.18,weatherlink.com 1.10,2013-06-28 17:35:00,
2013-06-28 13:50:00,72.6,67.0,29.46,South,187,1.0,6.0,83,0.00,,,0.18,weatherlink.com 1.10,2013-06-28 17:50:00,
2013-06-28 14:05:00,71.7,66.0,29.46,WSW,246,4.0,9.0,83,0.00,,,0.18,weatherlink.com 1.10,2013-06-28 18:05:00,
2013-06-28 14:20:00,71.2,66.0,29.46,NNE,28,2.0,9.0,82,0.00,,,0.18,weatherlink.com 1.10,2013-06-28 18:20:00,
2013-06-28 14:35:00,69.6,65.0,29.46,West,259,3.0,7.0,86,0.00,,,0.18,weatherlink.com 1.10,2013-06-28 18:35:00,
2013-06-28 14:50:00,70.5,66.0,29.46,SSW,207,8.0,12.0,85,0.00,,,0.18,weatherlink.com 1.10,2013-06-28 18:50:00,
2013-06-28 15:05:00,70.6,65.0,29.45,SW,236,5.0,9.0,83,0.00,,,0.18,weatherlink.com 1.10,2013-06-28 19:05:00,
2013-06-28 15:20:00,71.4,65.0,29.45,SW,218,2.0,5.0,81,0.00,,,0.18,weatherlink.com 1.10,2013-06-28 19:20:00,
2013-06-28 15:35:00,71.6,67.0,29.45,WSW,245,0.0,7.0,84,0.00,,,0.18,weatherlink.com 1.10,2013-06-28 19:35:00,
2013-06-28 15:50:00,71.6,67.0,29.45,SSW,207,3.0,9.0,84,0.00,,,0.18,weatherlink.com 1.10,2013-06-28 19:50:00,
2013-06-28 16:05:00,70.6,66.0,29.45,WSW,242,3.0,8.0,85,0.00,,,0.18,weatherlink.com 1.10,2013-06-28 20:05:00,
2013-06-28 16:20:00,70.5,66.0,29.44,SW,219,4.0,8.0,84,0.00,,,0.18,weatherlink.com 1.10,2013-06-28 20:20:00,
2013-06-28 16:35:00,71.1,66.0,29.45,SSW,194,1.0,8.0,85,0.00,,,0.18,weatherlink.com 1.10,2013-06-28 20:35:00,
2013-06-28 16:50:00,71.0,66.0,29.45,West,266,0.0,9.0,84,0.00,,,0.18,weatherlink.com 1.10,2013-06-28 20:50:00,
2013-06-28 17:05:00,70.5,66.0,29.45,SE,130,0.0,7.0,85,0.00,,,0.18,weatherlink.com 1.10,2013-06-28 21:05:00,
2013-06-28 17:20:00,70.6,66.0,29.44,East,96,0.0,5.0,85,0.00,,,0.18,weatherlink.com 1.10,2013-06-28 21:20:00,
2013-06-28 17:35:00,70.8,66.0,29.45,ESE,102,1.0,6.0,84,0.00,,,0.18,weatherlink.com 1.10,2013-06-28 21:35:00,
2013-06-28 17:50:00,69.2,65.0,29.45,WSW,248,4.0,6.0,86,0.00,,,0.18,weatherlink.com 1.10,2013-06-28 21:50:00,
2013-06-28 18:05:00,68.7,65.0,29.45,South,175,1.0,1.0,88,0.00,,,0.18,weatherlink.com 1.10,2013-06-28 22:05:00,
2013-06-28 18:20:00,68.6,65.0,29.45,East,83,0.0,5.0,89,0.00,,,0.18,weatherlink.com 1.10,2013-06-28 22:20:00,
2013-06-28 18:35:00,68.8,66.0,29.45,SSW,199,3.0,4.0,89,0.00,,,0.18,weatherlink.com 1.10,2013-06-28 22:35:00,
2013-06-28 18:50:00,68.3,65.0,29.46,WSW,253,0.0,4.0,90,0.00,,,0.18,weatherlink.com 1.10,2013-06-28 22:50:00,
2013-06-28 19:05:00,67.5,64.0,29.46,WSW,248,0.0,-999.0,89,-99.99,,,0.18,weatherlink.com 1.10,2013-06-28 23:05:00,
2013-06-28 19:20:00,67.6,65.0,29.47,SW,221,3.0,5.0,91,0.00,,,0.18,weatherlink.com 1.10,2013-06-28 23:20:00,
2013-06-28 19:35:00,66.9,65.0,29.47,West,280,0.0,5.0,94,0.00,,,0.18,weatherlink.com 1.10,2013-06-28 23:35:00,
2013-06-28 19:50:00,66.4,65.0,29.47,NNW,338,0.0,6.0,94,0.00,,,0.18,weatherlink.com 1.10,2013-06-28 23:50:00,
2013-06-28 20:05:00,66.2,65.0,29.47,SE,146,0.0,5.0,96,0.00,,,0.18,weatherlink.com 1.10,2013-06-29 00:05:00,
2013-06-28 20:20:00,65.5,64.0,29.48,SW,232,1.0,1.0,96,0.00,,,0.18,weatherlink.com 1.10,2013-06-29 00:20:00,
2013-06-28 20:35:00,64.9,64.0,29.48,NW,314,0.0,2.0,97,0.00,,,0.18,weatherlink.com 1.10,2013-06-29 00:35:00,
2013-06-28 20:50:00,64.6,64.0,29.48,WSW,244,0.0,3.0,97,0.00,,,0.18,weatherlink.com 1.10,2013-06-29 00:50:00,
2013-06-28 21:05:00,64.8,64.0,29.48,ESE,107,0.0,3.0,97,0.00,,,0.18,weatherlink.com 1.10,2013-06-29 01:05:00,
2013-06-28 21:20:00,64.9,64.0,29.48,WNW,295,0.0,2.0,96,0.00,,,0.18,weatherlink.com 1.10,2013-06-29 01:20:00,
2013-06-28 21:35:00,64.9,64.0,29.48,NE,35,0.0,2.0,96,0.00,,,0.18,weatherlink.com 1.10,2013-06-29 01:35:00,
2013-06-28 21:50:00,64.6,64.0,29.48,SE,145,1.0,1.0,96,0.00,,,0.18,weatherlink.com 1.10,2013-06-29 01:50:00,
2013-06-28 22:05:00,64.5,64.0,29.48,SE,126,0.0,1.0,97,0.00,,,0.18,weatherlink.com 1.10,2013-06-29 02:05:00,
2013-06-28 22:20:00,64.6,64.0,29.48,ESE,110,0.0,1.0,97,0.00,,,0.18,weatherlink.com 1.10,2013-06-29 02:20:00,
2013-06-28 22:35:00,64.5,63.0,29.49,SE,145,0.0,2.0,96,0.00,,,0.18,weatherlink.com 1.10,2013-06-29 02:35:00,
2013-06-28 22:50:00,64.4,64.0,29.49,SSW,204,0.0,1.0,97,0.00,,,0.18,weatherlink.com 1.10,2013-06-29 02:50:00,
2013-06-28 23:05:00,64.3,64.0,29.49,SE,126,0.0,1.0,97,0.00,,,0.18,weatherlink.com 1.10,2013-06-29 03:05:00,
2013-06-28 23:20:00,64.2,63.0,29.48,SSE,164,3.0,5.0,97,0.00,,,0.18,weatherlink.com 1.10,2013-06-29 03:20:00,
2013-06-28 23:35:00,64.0,63.0,29.49,SW,233,0.0,1.0,97,0.00,,,0.18,weatherlink.com 1.10,2013-06-29 03:35:00,
2013-06-28 23:50:00,63.9,63.0,29.49,North,350,0.0,1.0,98,0.00,,,0.18,weatherlink.com 1.10,2013-06-29 03:50:00,